sensor_id;sensor_type;location;lat;lon;timestamp;pressure;altitude;pressure_sealevel;temperature;humidity
27685;BME280;46113;50.130;8.526;2023-04-03T00:00:58;100115.94;;;0.64;67.89
27685;BME280;46113;50.130;8.526;2023-04-03T00:03:25;100112.41;;;0.85;67.70
27685;BME280;46113;50.130;8.526;2023-04-03T00:05:52;100109.84;;;0.79;67.42
27685;BME280;46113;50.130;8.526;2023-04-03T00:08:19;100113.25;;;0.89;67.46
27685;BME280;46113;50.130;8.526;2023-04-03T00:10:46;100109.78;;;0.93;67.27
27685;BME280;46113;50.130;8.526;2023-04-03T00:13:13;100108.09;;;0.81;66.98
27685;BME280;46113;50.130;8.526;2023-04-03T00:15:40;100100.25;;;0.79;67.18
27685;BME280;46113;50.130;8.526;2023-04-03T00:18:07;100114.13;;;0.91;67.53
27685;BME280;46113;50.130;8.526;2023-04-03T00:20:34;100109.78;;;0.93;67.35
27685;BME280;46113;50.130;8.526;2023-04-03T00:23:01;100101.19;;;0.75;67.67
27685;BME280;46113;50.130;8.526;2023-04-03T00:25:28;100103.72;;;0.91;67.29
27685;BME280;46113;50.130;8.526;2023-04-03T00:27:55;100105.44;;;0.90;66.85
27685;BME280;46113;50.130;8.526;2023-04-03T00:30:22;100109.84;;;0.73;66.77
27685;BME280;46113;50.130;8.526;2023-04-03T00:32:49;100102.03;;;0.76;67.43
27685;BME280;46113;50.130;8.526;2023-04-03T00:35:17;100096.84;;;0.68;67.37
27685;BME280;46113;50.130;8.526;2023-04-03T00:37:44;100105.50;;;0.75;67.35
27685;BME280;46113;50.130;8.526;2023-04-03T00:40:14;100102.94;;;0.68;67.45
27685;BME280;46113;50.130;8.526;2023-04-03T00:42:42;100100.28;;;0.78;67.58
27685;BME280;46113;50.130;8.526;2023-04-03T00:45:29;100108.97;;;0.67;67.84
27685;BME280;46113;50.130;8.526;2023-04-03T00:47:57;100113.31;;;0.76;67.10
27685;BME280;46113;50.130;8.526;2023-04-03T00:50:28;100110.81;;;0.40;68.27
27685;BME280;46113;50.130;8.526;2023-04-03T00:52:56;100102.97;;;0.59;67.60
27685;BME280;46113;50.130;8.526;2023-04-03T00:55:23;100113.31;;;0.78;67.33
27685;BME280;46113;50.130;8.526;2023-04-03T00:57:51;100113.34;;;0.68;67.43
27685;BME280;46113;50.130;8.526;2023-04-03T01:00:20;100101.22;;;0.55;68.22
27685;BME280;46113;50.130;8.526;2023-04-03T01:02:50;100108.13;;;0.62;67.90
27685;BME280;46113;50.130;8.526;2023-04-03T01:05:19;100108.16;;;0.61;67.87
27685;BME280;46113;50.130;8.526;2023-04-03T01:07:49;100106.38;;;0.72;67.28
27685;BME280;46113;50.130;8.526;2023-04-03T01:10:17;100105.53;;;0.67;67.81
27685;BME280;46113;50.130;8.526;2023-04-03T01:12:48;100109.06;;;0.47;67.27
27685;BME280;46113;50.130;8.526;2023-04-03T01:15:23;100116.03;;;0.37;68.22
27685;BME280;46113;50.130;8.526;2023-04-03T01:17:55;100110.84;;;0.37;66.52
27685;BME280;46113;50.130;8.526;2023-04-03T01:25:50;100110.78;;;0.47;64.59
27685;BME280;46113;50.130;8.526;2023-04-03T01:28:29;100115.00;;;0.91;64.10
27685;BME280;46113;50.130;8.526;2023-04-03T01:33:34;100112.44;;;0.73;65.00
27685;BME280;46113;50.130;8.526;2023-04-03T01:36:02;100118.53;;;0.72;65.22
27685;BME280;46113;50.130;8.526;2023-04-03T01:38:30;100115.00;;;0.90;65.72
27685;BME280;46113;50.130;8.526;2023-04-03T01:40:57;100116.72;;;0.94;64.63
27685;BME280;46113;50.130;8.526;2023-04-03T01:43:24;100127.16;;;0.89;64.13
27685;BME280;46113;50.130;8.526;2023-04-03T01:45:51;100122.81;;;0.94;64.24
27685;BME280;46113;50.130;8.526;2023-04-03T01:48:19;100125.44;;;0.88;63.08
27685;BME280;46113;50.130;8.526;2023-04-03T01:50:46;100116.72;;;0.95;62.35
27685;BME280;46113;50.130;8.526;2023-04-03T01:53:13;100121.91;;;0.97;63.89
27685;BME280;46113;50.130;8.526;2023-04-03T01:55:41;100121.91;;;0.92;64.78
27685;BME280;46113;50.130;8.526;2023-04-03T01:58:07;100128.84;;;1.03;64.00
27685;BME280;46113;50.130;8.526;2023-04-03T02:00:34;100121.09;;;0.84;61.91
27685;BME280;46113;50.130;8.526;2023-04-03T02:03:03;100117.56;;;0.99;63.74
27685;BME280;46113;50.130;8.526;2023-04-03T02:05:29;100118.63;;;0.43;64.93
27685;BME280;46113;50.130;8.526;2023-04-03T02:07:56;100118.59;;;0.47;65.28
27685;BME280;46113;50.130;8.526;2023-04-03T02:10:23;100123.69;;;0.92;63.61
27685;BME280;46113;50.130;8.526;2023-04-03T02:12:49;100123.66;;;1.07;64.17
27685;BME280;46113;50.130;8.526;2023-04-03T02:15:17;100124.53;;;1.06;63.14
27685;BME280;46113;50.130;8.526;2023-04-03T02:17:44;100122.75;;;1.07;63.21
27685;BME280;46113;50.130;8.526;2023-04-03T02:20:11;100128.19;;;0.40;65.19
27685;BME280;46113;50.130;8.526;2023-04-03T02:22:38;100131.53;;;0.81;63.63
27685;BME280;46113;50.130;8.526;2023-04-03T02:25:04;100135.84;;;0.94;62.72
27685;BME280;46113;50.130;8.526;2023-04-03T02:27:31;100135.88;;;0.73;62.35
27685;BME280;46113;50.130;8.526;2023-04-03T02:29:58;100127.19;;;0.81;61.61
27685;BME280;46113;50.130;8.526;2023-04-03T02:32:24;100128.94;;;0.81;61.62
27685;BME280;46113;50.130;8.526;2023-04-03T02:34:51;100132.38;;;0.88;61.71
27685;BME280;46113;50.130;8.526;2023-04-03T02:37:18;100137.66;;;0.74;60.39
27685;BME280;46113;50.130;8.526;2023-04-03T02:39:46;100128.94;;;0.81;60.80
27685;BME280;46113;50.130;8.526;2023-04-03T02:42:13;100135.03;;;0.72;60.38
27685;BME280;46113;50.130;8.526;2023-04-03T02:44:40;100141.03;;;0.94;60.60
27685;BME280;46113;50.130;8.526;2023-04-03T02:47:08;100138.50;;;0.77;60.32
27685;BME280;46113;50.130;8.526;2023-04-03T02:49:35;100142.00;;;0.65;60.33
27685;BME280;46113;50.130;8.526;2023-04-03T02:52:01;100139.38;;;0.70;60.01
27685;BME280;46113;50.130;8.526;2023-04-03T02:54:28;100147.25;;;0.50;59.89
27685;BME280;46113;50.130;8.526;2023-04-03T02:57:00;100141.16;;;0.52;60.05
27685;BME280;46113;50.130;8.526;2023-04-03T02:59:27;100148.09;;;0.53;59.69
27685;BME280;46113;50.130;8.526;2023-04-03T03:01:53;100149.03;;;0.32;59.94
27685;BME280;46113;50.130;8.526;2023-04-03T03:04:21;100149.91;;;0.12;60.49
27685;BME280;46113;50.130;8.526;2023-04-03T03:06:48;100147.28;;;0.09;60.54
27685;BME280;46113;50.130;8.526;2023-04-03T03:09:15;100143.81;;;0.27;59.86
27685;BME280;46113;50.130;8.526;2023-04-03T03:11:41;100147.28;;;0.20;59.96
27685;BME280;46113;50.130;8.526;2023-04-03T03:14:08;100147.28;;;0.28;59.63
27685;BME280;46113;50.130;8.526;2023-04-03T03:16:35;100143.84;;;-0.08;60.04
27685;BME280;46113;50.130;8.526;2023-04-03T03:19:01;100145.56;;;0.24;59.62
27685;BME280;46113;50.130;8.526;2023-04-03T03:21:28;100144.69;;;0.20;59.70
27685;BME280;46113;50.130;8.526;2023-04-03T03:23:55;100151.63;;;0.23;60.39
27685;BME280;46113;50.130;8.526;2023-04-03T03:26:21;100149.88;;;0.31;59.79
27685;BME280;46113;50.130;8.526;2023-04-03T03:28:48;100151.63;;;0.10;60.55
27685;BME280;46113;50.130;8.526;2023-04-03T03:31:15;100149.00;;;0.18;60.48
27685;BME280;46113;50.130;8.526;2023-04-03T03:33:42;100155.97;;;0.03;59.93
27685;BME280;46113;50.130;8.526;2023-04-03T03:36:08;100152.50;;;-0.08;60.40
27685;BME280;46113;50.130;8.526;2023-04-03T03:38:35;100159.41;;;-0.23;60.18
27685;BME280;46113;50.130;8.526;2023-04-03T03:41:02;100150.72;;;-0.42;60.81
27685;BME280;46113;50.130;8.526;2023-04-03T03:43:31;100145.50;;;-0.45;60.74
27685;BME280;46113;50.130;8.526;2023-04-03T03:45:57;100157.53;;;-0.87;61.27
27685;BME280;46113;50.130;8.526;2023-04-03T03:48:25;100159.31;;;-0.71;61.39
27685;BME280;46113;50.130;8.526;2023-04-03T03:50:52;100162.81;;;-0.69;61.29
27685;BME280;46113;50.130;8.526;2023-04-03T03:53:22;100159.25;;;-0.88;61.36
27685;BME280;46113;50.130;8.526;2023-04-03T03:55:52;100161.94;;;-0.68;61.79
27685;BME280;46113;50.130;8.526;2023-04-03T03:58:22;100161.81;;;-0.94;60.98
27685;BME280;46113;50.130;8.526;2023-04-03T04:00:48;100166.97;;;-1.05;61.19
27685;BME280;46113;50.130;8.526;2023-04-03T04:03:15;100160.91;;;-1.12;62.04
27685;BME280;46113;50.130;8.526;2023-04-03T04:05:45;100162.50;;;-1.31;61.94
27685;BME280;46113;50.130;8.526;2023-04-03T04:08:12;100162.56;;;-1.26;61.91
27685;BME280;46113;50.130;8.526;2023-04-03T04:10:39;100160.69;;;-1.49;63.90
27685;BME280;46113;50.130;8.526;2023-04-03T04:13:06;100162.56;;;-1.22;63.25
27685;BME280;46113;50.130;8.526;2023-04-03T04:15:33;100164.25;;;-1.29;62.99
27685;BME280;46113;50.130;8.526;2023-04-03T04:18:01;100160.81;;;-1.27;62.82
27685;BME280;46113;50.130;8.526;2023-04-03T04:20:28;100157.31;;;-1.33;63.42
27685;BME280;46113;50.130;8.526;2023-04-03T04:22:55;100165.94;;;-1.35;63.77
27685;BME280;46113;50.130;8.526;2023-04-03T04:25:24;100162.47;;;-1.37;63.83
27685;BME280;46113;50.130;8.526;2023-04-03T04:27:51;100161.56;;;-1.46;64.58
27685;BME280;46113;50.130;8.526;2023-04-03T04:30:17;100165.88;;;-1.49;64.49
27685;BME280;46113;50.130;8.526;2023-04-03T04:32:47;100166.66;;;-1.61;64.94
27685;BME280;46113;50.130;8.526;2023-04-03T04:35:14;100166.72;;;-1.52;63.95
27685;BME280;46113;50.130;8.526;2023-04-03T04:37:45;100166.69;;;-1.53;64.02
27685;BME280;46113;50.130;8.526;2023-04-03T04:40:12;100164.09;;;-1.57;63.58
27685;BME280;46113;50.130;8.526;2023-04-03T04:42:39;100164.13;;;-1.50;63.14
27685;BME280;46113;50.130;8.526;2023-04-03T04:45:06;100165.81;;;-1.62;65.46
27685;BME280;46113;50.130;8.526;2023-04-03T04:47:35;100170.09;;;-1.67;65.44
27685;BME280;46113;50.130;8.526;2023-04-03T04:50:02;100167.44;;;-1.72;64.50
27685;BME280;46113;50.130;8.526;2023-04-03T04:52:31;100177.00;;;-1.66;65.47
27685;BME280;46113;50.130;8.526;2023-04-03T04:54:58;100178.69;;;-1.73;65.97
27685;BME280;46113;50.130;8.526;2023-04-03T04:57:24;100194.28;;;-1.71;66.60
27685;BME280;46113;50.130;8.526;2023-04-03T04:59:52;100188.06;;;-1.89;66.92
27685;BME280;46113;50.130;8.526;2023-04-03T05:02:19;100192.75;;;-2.43;68.81
27685;BME280;46113;50.130;8.526;2023-04-03T05:04:46;100195.69;;;-2.09;68.15
27685;BME280;46113;50.130;8.526;2023-04-03T05:07:18;100196.63;;;-2.01;67.72
27685;BME280;46113;50.130;8.526;2023-04-03T05:09:45;100198.31;;;-2.03;67.40
27685;BME280;46113;50.130;8.526;2023-04-03T05:12:13;100189.59;;;-2.14;67.26
27685;BME280;46113;50.130;8.526;2023-04-03T05:14:47;100192.84;;;-2.34;68.26
27685;BME280;46113;50.130;8.526;2023-04-03T05:17:14;100198.91;;;-2.33;69.36
27685;BME280;46113;50.130;8.526;2023-04-03T05:19:47;100203.81;;;-2.58;70.10
27685;BME280;46113;50.130;8.526;2023-04-03T05:22:14;100206.75;;;-2.27;69.24
27685;BME280;46113;50.130;8.526;2023-04-03T05:24:41;100203.16;;;-2.37;69.14
27685;BME280;46113;50.130;8.526;2023-04-03T05:27:08;100202.41;;;-2.28;69.63
27685;BME280;46113;50.130;8.526;2023-04-03T05:29:39;100207.34;;;-2.50;69.23
27685;BME280;46113;50.130;8.526;2023-04-03T05:32:06;100213.53;;;-2.40;69.55
27685;BME280;46113;50.130;8.526;2023-04-03T05:34:33;100205.88;;;-2.26;67.81
27685;BME280;46113;50.130;8.526;2023-04-03T05:37:00;100214.59;;;-2.21;68.48
27685;BME280;46113;50.130;8.526;2023-04-03T05:39:29;100219.81;;;-2.16;67.77
27685;BME280;46113;50.130;8.526;2023-04-03T05:41:59;100223.41;;;-2.03;68.48
27685;BME280;46113;50.130;8.526;2023-04-03T05:44:27;100225.13;;;-2.04;68.48
27685;BME280;46113;50.130;8.526;2023-04-03T05:46:54;100226.22;;;-1.80;67.48
27685;BME280;46113;50.130;8.526;2023-04-03T05:49:21;100231.31;;;-1.89;67.24
27685;BME280;46113;50.130;8.526;2023-04-03T05:51:48;100228.09;;;-1.60;65.59
27685;BME280;46113;50.130;8.526;2023-04-03T05:54:28;100234.31;;;-1.36;64.64
27685;BME280;46113;50.130;8.526;2023-04-03T05:57:08;100240.94;;;-1.77;64.84
27685;BME280;46113;50.130;8.526;2023-04-03T05:59:36;100240.28;;;-1.51;63.76
27685;BME280;46113;50.130;8.526;2023-04-03T10:35:39;100294.91;;;2.59;39.74
27685;BME280;46113;50.130;8.526;2023-04-03T10:40:55;100296.75;;;2.46;39.98
27685;BME280;46113;50.130;8.526;2023-04-03T10:43:42;100289.53;;;2.74;39.77
27685;BME280;46113;50.130;8.526;2023-04-03T10:46:26;100290.38;;;2.79;40.52
27685;BME280;46113;50.130;8.526;2023-04-03T10:52:05;100278.91;;;2.94;39.66
27685;BME280;46113;50.130;8.526;2023-04-03T10:54:57;100276.72;;;3.35;39.72
27685;BME280;46113;50.130;8.526;2023-04-03T10:57:28;100278.38;;;2.58;39.16
27685;BME280;46113;50.130;8.526;2023-04-03T11:00:05;100273.56;;;3.05;40.63
27685;BME280;46113;50.130;8.526;2023-04-03T11:02:56;100266.94;;;3.55;38.40
27685;BME280;46113;50.130;8.526;2023-04-03T11:08:03;100274.59;;;3.70;38.05
27685;BME280;46113;50.130;8.526;2023-04-03T11:10:49;100254.41;;;3.79;37.36
27685;BME280;46113;50.130;8.526;2023-04-03T11:13:30;100270.13;;;3.79;38.81
27685;BME280;46113;50.130;8.526;2023-04-03T11:15:59;100266.84;;;3.63;38.16
27685;BME280;46113;50.130;8.526;2023-04-03T11:18:32;100277.84;;;3.14;38.47
27685;BME280;46113;50.130;8.526;2023-04-03T11:21:14;100264.00;;;3.03;39.47
27685;BME280;46113;50.130;8.526;2023-04-03T11:23:46;100265.59;;;3.19;39.97
27685;BME280;46113;50.130;8.526;2023-04-03T11:26:18;100272.22;;;2.62;39.32
27685;BME280;46113;50.130;8.526;2023-04-03T11:28:45;100273.25;;;2.44;40.05
27685;BME280;46113;50.130;8.526;2023-04-03T11:31:26;100267.88;;;2.60;39.37
27685;BME280;46113;50.130;8.526;2023-04-03T11:37:01;100254.19;;;2.33;39.20
27685;BME280;46113;50.130;8.526;2023-04-03T11:39:35;100266.66;;;1.90;39.41
27685;BME280;46113;50.130;8.526;2023-04-03T11:44:50;100256.31;;;1.73;39.14
27685;BME280;46113;50.130;8.526;2023-04-03T11:47:47;100250.75;;;2.24;39.56
27685;BME280;46113;50.130;8.526;2023-04-03T11:53:28;100249.19;;;2.01;37.98
27685;BME280;46113;50.130;8.526;2023-04-03T11:55:57;100260.53;;;1.94;38.87
27685;BME280;46113;50.130;8.526;2023-04-03T11:58:33;100247.31;;;2.19;39.09
27685;BME280;46113;50.130;8.526;2023-04-03T12:01:09;100230.63;;;2.40;37.59
27685;BME280;46113;50.130;8.526;2023-04-03T12:08:46;100220.00;;;2.61;38.20
27685;BME280;46113;50.130;8.526;2023-04-03T12:16:22;100212.50;;;3.13;38.00
27685;BME280;46113;50.130;8.526;2023-04-03T12:21:22;100220.16;;;2.42;38.02
27685;BME280;46113;50.130;8.526;2023-04-03T12:37:39;100206.78;;;2.76;38.38
27685;BME280;46113;50.130;8.526;2023-04-03T12:40:16;100200.59;;;2.82;38.00
27685;BME280;46113;50.130;8.526;2023-04-03T12:45:43;100199.41;;;2.25;38.99
27685;BME280;46113;50.130;8.526;2023-04-03T12:48:16;100197.19;;;2.75;38.42
27685;BME280;46113;50.130;8.526;2023-04-03T12:50:45;100206.88;;;2.67;38.46
27685;BME280;46113;50.130;8.526;2023-04-03T12:53:27;100194.63;;;2.72;38.11
27685;BME280;46113;50.130;8.526;2023-04-03T12:55:58;100194.81;;;2.53;37.77
27685;BME280;46113;50.130;8.526;2023-04-03T12:58:44;100188.31;;;2.93;38.40
27685;BME280;46113;50.130;8.526;2023-04-03T13:01:13;100196.25;;;2.82;38.11
27685;BME280;46113;50.130;8.526;2023-04-03T13:03:44;100183.38;;;2.64;38.46
27685;BME280;46113;50.130;8.526;2023-04-03T13:06:21;100184.75;;;2.98;38.89
27685;BME280;46113;50.130;8.526;2023-04-03T13:08:54;100178.41;;;3.17;40.05
27685;BME280;46113;50.130;8.526;2023-04-03T13:11:25;100179.69;;;2.85;39.43
27685;BME280;46113;50.130;8.526;2023-04-03T13:14:00;100183.09;;;2.90;38.85
27685;BME280;46113;50.130;8.526;2023-04-03T13:16:26;100177.69;;;3.06;38.42
27685;BME280;46113;50.130;8.526;2023-04-03T13:18:54;100196.16;;;2.92;39.05
27685;BME280;46113;50.130;8.526;2023-04-03T13:21:27;100181.16;;;3.08;38.48
27685;BME280;46113;50.130;8.526;2023-04-03T13:23:57;100189.88;;;3.07;38.04
27685;BME280;46113;50.130;8.526;2023-04-03T13:26:40;100192.66;;;2.94;37.72
27685;BME280;46113;50.130;8.526;2023-04-03T13:29:30;100180.31;;;3.04;38.20
27685;BME280;46113;50.130;8.526;2023-04-03T13:31:58;100171.03;;;2.80;37.61
27685;BME280;46113;50.130;8.526;2023-04-03T13:34:35;100166.44;;;2.98;37.82
27685;BME280;46113;50.130;8.526;2023-04-03T13:37:02;100164.72;;;2.98;38.67
27685;BME280;46113;50.130;8.526;2023-04-03T13:39:36;100157.56;;;3.13;38.68
27685;BME280;46113;50.130;8.526;2023-04-03T13:42:22;100171.66;;;3.02;37.89
27685;BME280;46113;50.130;8.526;2023-04-03T13:45:08;100170.94;;;2.86;38.59
27685;BME280;46113;50.130;8.526;2023-04-03T13:47:40;100158.59;;;2.98;38.25
27685;BME280;46113;50.130;8.526;2023-04-03T13:52:43;100154.19;;;3.03;38.37
27685;BME280;46113;50.130;8.526;2023-04-03T13:55:25;100153.75;;;2.66;38.37
27685;BME280;46113;50.130;8.526;2023-04-03T13:58:03;100151.94;;;2.72;37.73
27685;BME280;46113;50.130;8.526;2023-04-03T14:00:51;100147.22;;;3.05;38.43
27685;BME280;46113;50.130;8.526;2023-04-03T14:05:47;100162.28;;;2.84;38.81
27685;BME280;46113;50.130;8.526;2023-04-03T14:08:13;100163.34;;;2.66;38.82
27685;BME280;46113;50.130;8.526;2023-04-03T14:10:40;100152.63;;;2.89;36.93
27685;BME280;46113;50.130;8.526;2023-04-03T14:13:11;100164.13;;;2.73;38.54
27685;BME280;46113;50.130;8.526;2023-04-03T14:15:37;100157.97;;;2.77;38.18
27685;BME280;46113;50.130;8.526;2023-04-03T14:18:05;100169.47;;;2.62;37.80
27685;BME280;46113;50.130;8.526;2023-04-03T14:20:33;100163.19;;;2.80;38.37
27685;BME280;46113;50.130;8.526;2023-04-03T14:23:00;100149.00;;;3.01;37.92
27685;BME280;46113;50.130;8.526;2023-04-03T14:25:29;100146.34;;;3.04;37.79
27685;BME280;46113;50.130;8.526;2023-04-03T14:27:56;100147.44;;;2.86;39.18
27685;BME280;46113;50.130;8.526;2023-04-03T14:30:31;100145.78;;;2.77;37.81
27685;BME280;46113;50.130;8.526;2023-04-03T14:32:58;100146.59;;;2.84;38.90
27685;BME280;46113;50.130;8.526;2023-04-03T14:35:26;100134.44;;;2.78;38.48
27685;BME280;46113;50.130;8.526;2023-04-03T14:37:53;100142.38;;;2.69;38.50
27685;BME280;46113;50.130;8.526;2023-04-03T14:40:26;100133.34;;;2.98;38.63
27685;BME280;46113;50.130;8.526;2023-04-03T14:42:53;100135.22;;;2.87;39.12
27685;BME280;46113;50.130;8.526;2023-04-03T14:45:23;100137.84;;;2.88;38.83
27685;BME280;46113;50.130;8.526;2023-04-03T14:47:52;100135.50;;;2.63;38.45
27685;BME280;46113;50.130;8.526;2023-04-03T14:50:25;100136.13;;;2.84;39.49
27685;BME280;46113;50.130;8.526;2023-04-03T14:52:55;100130.56;;;3.11;38.09
27685;BME280;46113;50.130;8.526;2023-04-03T14:55:24;100130.63;;;3.06;39.04
27685;BME280;46113;50.130;8.526;2023-04-03T14:57:51;100113.53;;;2.80;39.62
27685;BME280;46113;50.130;8.526;2023-04-03T15:00:22;100127.31;;;2.93;38.25
27685;BME280;46113;50.130;8.526;2023-04-03T15:02:49;100128.41;;;2.72;37.85
27685;BME280;46113;50.130;8.526;2023-04-03T15:05:17;100124.16;;;2.66;37.81
27685;BME280;46113;50.130;8.526;2023-04-03T15:07:50;100128.13;;;2.95;37.59
27685;BME280;46113;50.130;8.526;2023-04-03T15:10:20;100127.38;;;2.87;38.58
27685;BME280;46113;50.130;8.526;2023-04-03T15:12:48;100136.84;;;2.99;39.30
27685;BME280;46113;50.130;8.526;2023-04-03T15:15:17;100132.56;;;2.91;39.11
27685;BME280;46113;50.130;8.526;2023-04-03T15:17:44;100136.56;;;3.19;38.44
27685;BME280;46113;50.130;8.526;2023-04-03T15:20:18;100135.13;;;2.94;37.87
27685;BME280;46113;50.130;8.526;2023-04-03T15:22:45;100143.69;;;3.07;38.04
27685;BME280;46113;50.130;8.526;2023-04-03T15:25:12;100141.28;;;2.90;38.19
27685;BME280;46113;50.130;8.526;2023-04-03T15:27:39;100134.94;;;3.10;38.46
27685;BME280;46113;50.130;8.526;2023-04-03T15:30:10;100137.66;;;3.04;37.92
27685;BME280;46113;50.130;8.526;2023-04-03T15:32:37;100132.56;;;2.91;38.93
27685;BME280;46113;50.130;8.526;2023-04-03T15:35:04;100131.94;;;2.69;38.32
27685;BME280;46113;50.130;8.526;2023-04-03T15:37:31;100134.19;;;3.00;39.36
27685;BME280;46113;50.130;8.526;2023-04-03T15:39:58;100125.41;;;3.04;38.82
27685;BME280;46113;50.130;8.526;2023-04-03T15:42:25;100126.50;;;2.86;38.09
27685;BME280;46113;50.130;8.526;2023-04-03T15:44:51;100130.22;;;2.66;38.24
27685;BME280;46113;50.130;8.526;2023-04-03T15:47:18;100118.78;;;2.77;38.07
27685;BME280;46113;50.130;8.526;2023-04-03T15:49:45;100124.53;;;3.05;37.75
27685;BME280;46113;50.130;8.526;2023-04-03T15:52:12;100119.47;;;2.93;37.62
27685;BME280;46113;50.130;8.526;2023-04-03T15:54:38;100129.84;;;2.99;38.66
27685;BME280;46113;50.130;8.526;2023-04-03T15:57:05;100122.44;;;2.63;37.46
27685;BME280;46113;50.130;8.526;2023-04-03T15:59:32;100118.13;;;2.59;37.65
27685;BME280;46113;50.130;8.526;2023-04-03T16:01:59;100118.75;;;2.81;37.76
27685;BME280;46113;50.130;8.526;2023-04-03T16:04:28;100126.59;;;2.78;37.88
27685;BME280;46113;50.130;8.526;2023-04-03T16:06:55;100121.19;;;2.94;38.42
27685;BME280;46113;50.130;8.526;2023-04-03T16:09:22;100128.09;;;3.01;37.86
27685;BME280;46113;50.130;8.526;2023-04-03T16:11:48;100124.06;;;2.72;38.53
27685;BME280;46113;50.130;8.526;2023-04-03T16:14:15;100131.13;;;2.64;38.09
27685;BME280;46113;50.130;8.526;2023-04-03T16:16:41;100137.63;;;2.24;38.41
27685;BME280;46113;50.130;8.526;2023-04-03T16:19:09;100134.97;;;2.28;39.26
27685;BME280;46113;50.130;8.526;2023-04-03T16:21:36;100130.69;;;2.18;39.46
27685;BME280;46113;50.130;8.526;2023-04-03T16:24:03;100127.94;;;2.37;39.59
27685;BME280;46113;50.130;8.526;2023-04-03T16:26:30;100131.44;;;2.36;38.72
27685;BME280;46113;50.130;8.526;2023-04-03T16:28:56;100129.72;;;2.33;38.33
27685;BME280;46113;50.130;8.526;2023-04-03T16:31:24;100136.75;;;2.23;38.58
27685;BME280;46113;50.130;8.526;2023-04-03T16:33:51;100134.97;;;2.28;38.99
27685;BME280;46113;50.130;8.526;2023-04-03T16:36:18;100147.53;;;1.84;37.51
27685;BME280;46113;50.130;8.526;2023-04-03T16:38:45;100146.34;;;2.21;37.63
27685;BME280;46113;50.130;8.526;2023-04-03T16:41:12;100155.22;;;1.98;37.44
27685;BME280;46113;50.130;8.526;2023-04-03T16:43:38;100139.53;;;2.05;38.81
27685;BME280;46113;50.130;8.526;2023-04-03T16:46:05;100148.41;;;1.82;38.98
27685;BME280;46113;50.130;8.526;2023-04-03T16:48:32;100144.91;;;1.83;37.98
27685;BME280;46113;50.130;8.526;2023-04-03T16:50:58;100153.56;;;1.93;39.14
27685;BME280;46113;50.130;8.526;2023-04-03T16:53:26;100153.63;;;1.85;39.07
27685;BME280;46113;50.130;8.526;2023-04-03T16:55:53;100157.06;;;1.90;37.96
27685;BME280;46113;50.130;8.526;2023-04-03T16:58:20;100159.72;;;1.81;38.16
27685;BME280;46113;50.130;8.526;2023-04-03T17:00:52;100164.94;;;1.79;38.29
27685;BME280;46113;50.130;8.526;2023-04-03T17:03:20;100164.13;;;1.77;38.28
27685;BME280;46113;50.130;8.526;2023-04-03T17:05:47;100162.34;;;1.81;39.01
27685;BME280;46113;50.130;8.526;2023-04-03T17:08:16;100170.31;;;1.53;39.24
27685;BME280;46113;50.130;8.526;2023-04-03T17:10:43;100173.72;;;1.66;38.57
27685;BME280;46113;50.130;8.526;2023-04-03T17:13:10;100170.28;;;1.65;39.16
27685;BME280;46113;50.130;8.526;2023-04-03T17:15:36;100170.31;;;1.54;39.23
27685;BME280;46113;50.130;8.526;2023-04-03T17:18:04;100180.88;;;1.32;38.30
27685;BME280;46113;50.130;8.526;2023-04-03T17:20:31;100185.13;;;1.46;37.98
27685;BME280;46113;50.130;8.526;2023-04-03T17:23:00;100180.84;;;1.40;38.42
27685;BME280;46113;50.130;8.526;2023-04-03T17:25:30;100183.41;;;1.45;38.76
27685;BME280;46113;50.130;8.526;2023-04-03T17:27:58;100181.72;;;1.33;38.60
27685;BME280;46113;50.130;8.526;2023-04-03T17:30:24;100179.13;;;1.34;38.80
27685;BME280;46113;50.130;8.526;2023-04-03T17:32:51;100183.44;;;1.40;39.11
27685;BME280;46113;50.130;8.526;2023-04-03T17:35:17;100181.69;;;1.42;39.36
27685;BME280;46113;50.130;8.526;2023-04-03T17:37:44;100189.59;;;1.30;39.09
27685;BME280;46113;50.130;8.526;2023-04-03T17:40:11;100184.38;;;1.27;40.01
27685;BME280;46113;50.130;8.526;2023-04-03T17:42:39;100187.03;;;1.14;39.56
27685;BME280;46113;50.130;8.526;2023-04-03T17:45:06;100184.41;;;1.19;40.62
27685;BME280;46113;50.130;8.526;2023-04-03T17:47:33;100185.31;;;1.08;40.63
27685;BME280;46113;50.130;8.526;2023-04-03T17:50:00;100194.91;;;0.89;40.25
27685;BME280;46113;50.130;8.526;2023-04-03T17:52:26;100192.28;;;0.95;39.92
27685;BME280;46113;50.130;8.526;2023-04-03T17:54:53;100197.53;;;0.83;39.27
27685;BME280;46113;50.130;8.526;2023-04-03T17:57:20;100203.59;;;0.87;40.13
27685;BME280;46113;50.130;8.526;2023-04-03T17:59:47;100201.94;;;0.61;39.88
27685;BME280;46113;50.130;8.526;2023-04-03T18:02:13;100205.31;;;0.92;40.06
27685;BME280;46113;50.130;8.526;2023-04-03T18:04:40;100200.97;;;0.93;40.10
27685;BME280;46113;50.130;8.526;2023-04-03T18:07:07;100203.63;;;0.68;40.17
27685;BME280;46113;50.130;8.526;2023-04-03T18:09:36;100205.34;;;0.80;40.79
27685;BME280;46113;50.130;8.526;2023-04-03T18:12:05;100206.22;;;0.88;41.57
27685;BME280;46113;50.130;8.526;2023-04-03T18:14:33;100205.34;;;0.77;40.88
27685;BME280;46113;50.130;8.526;2023-04-03T18:17:01;100219.25;;;0.74;41.64
27685;BME280;46113;50.130;8.526;2023-04-03T18:19:28;100215.81;;;0.61;41.23
27685;BME280;46113;50.130;8.526;2023-04-03T18:21:58;100210.59;;;0.63;41.41
27685;BME280;46113;50.130;8.526;2023-04-03T18:24:27;100215.81;;;0.75;41.08
27685;BME280;46113;50.130;8.526;2023-04-03T18:26:57;100212.34;;;0.61;41.69
27685;BME280;46113;50.130;8.526;2023-04-03T18:29:28;100210.56;;;0.67;41.10
27685;BME280;46113;50.130;8.526;2023-04-03T18:31:55;100211.47;;;0.69;42.13
27685;BME280;46113;50.130;8.526;2023-04-03T18:34:22;100208.03;;;0.50;42.80
27685;BME280;46113;50.130;8.526;2023-04-03T18:36:49;100220.16;;;0.34;42.09
27685;BME280;46113;50.130;8.526;2023-04-03T18:39:15;100219.28;;;0.41;42.03
27685;BME280;46113;50.130;8.526;2023-04-03T18:41:43;100218.44;;;0.49;42.05